Time;durP1;ratioP1;P1;durP2;ratioP2;P2;SDS_P1;SDS_P2;PMS_P1;PMS_P2;Temp;Humidity;BMP_temperature;BMP_pressure;BME280_temperature;BME280_humidity;BME280_pressure;Samples;Min_cycle;Max_cycle;Signal;HPM_P1;HPM_P2
2023/03/26 00:01:45;;;;;;;;;;;12.60;99.90;;;;;;5052614;28;20447;-71
2023/03/26 00:04:10;;;;;;;;;;;12.50;99.90;;;;;;5053234;28;19959;-71
2023/03/26 00:06:38;;;;;;;;;;;12.50;99.90;;;;;;5052500;28;19912;-71
2023/03/26 00:09:07;;;;;;;;;;;12.40;99.90;;;;;;5053531;28;19908;-71
2023/03/26 00:11:33;;;;;;;;;;;12.40;99.90;;;;;;5054636;28;20347;-71
2023/03/26 00:13:59;;;;;;;;;;;12.40;99.90;;;;;;5057399;28;19909;-71
2023/03/26 00:16:29;;;;;;;;;;;12.40;99.90;;;;;;5056722;28;19909;-71
2023/03/26 00:18:56;;;;;;;;;;;12.60;99.90;;;;;;5056840;28;20202;-71
2023/03/26 00:21:26;;;;;;;;;;;12.70;99.90;;;;;;5056817;28;19915;-72
2023/03/26 00:23:53;;;;;;;;;;;12.70;99.90;;;;;;5056932;28;20457;-70
2023/03/26 00:26:18;;;;;;;;;;;12.70;99.90;;;;;;5056918;28;20119;-71
2023/03/26 00:28:44;;;;;;;;;;;12.70;99.90;;;;;;5056914;28;19917;-71
2023/03/26 00:31:13;;;;;;;;;;;12.70;99.90;;;;;;5057083;28;19932;-70
2023/03/26 00:33:40;;;;;;;;;;;12.70;99.90;;;;;;5056330;28;19908;-71
2023/03/26 00:36:08;;;;;;;;;;;12.70;99.90;;;;;;5056343;28;19913;-71
2023/03/26 00:38:37;;;;;;;;;;;12.70;99.90;;;;;;5056428;28;19909;-71
2023/03/26 00:41:04;;;;;;;;;;;12.70;99.90;;;;;;5056544;28;19916;-71
2023/03/26 00:43:31;;;;;;;;;;;12.70;99.90;;;;;;5056247;28;19916;-71
2023/03/26 00:45:57;;;;;;;;;;;12.60;99.90;;;;;;5056323;28;19909;-71
2023/03/26 00:48:23;;;;;;;;;;;12.60;99.90;;;;;;5055586;28;19913;-71
2023/03/26 00:50:49;;;;;;;;;;;12.60;99.90;;;;;;5056021;28;19919;-71
2023/03/26 00:53:15;;;;;;;;;;;12.50;99.90;;;;;;5055519;28;19975;-71
2023/03/26 00:55:42;;;;;;;;;;;12.60;99.90;;;;;;5055743;28;19913;-71
2023/03/26 00:58:11;;;;;;;;;;;12.60;99.90;;;;;;5056088;28;19909;-71
2023/03/26 01:00:40;;;;;;;;;;;12.70;99.90;;;;;;5056041;28;19917;-70
2023/03/26 01:03:06;;;;;;;;;;;12.60;99.90;;;;;;5055637;28;20391;-71
2023/03/26 01:05:35;;;;;;;;;;;12.60;99.90;;;;;;5055335;28;19941;-71
2023/03/26 01:08:14;;;;;;;;;;;12.60;99.90;;;;;;5055850;28;19972;-70
2023/03/26 01:10:43;;;;;;;;;;;12.60;99.90;;;;;;5055175;28;19909;-71
2023/03/26 01:13:09;;;;;;;;;;;12.80;99.90;;;;;;5055113;28;19955;-70
2023/03/26 01:15:37;;;;;;;;;;;12.80;99.90;;;;;;5055506;28;19909;-71
2023/03/26 01:18:04;;;;;;;;;;;12.70;99.90;;;;;;5055947;28;19909;-70
2023/03/26 01:20:33;;;;;;;;;;;12.70;99.90;;;;;;5055318;28;19913;-71
2023/03/26 01:23:04;;;;;;;;;;;12.60;99.90;;;;;;5054162;28;19946;-71
2023/03/26 01:25:31;;;;;;;;;;;12.60;99.90;;;;;;5055328;28;19909;-71
2023/03/26 01:27:57;;;;;;;;;;;12.60;99.90;;;;;;5055128;28;19924;-70
2023/03/26 01:30:28;;;;;;;;;;;12.50;99.90;;;;;;5055944;28;19909;-71
2023/03/26 01:32:57;;;;;;;;;;;12.50;99.90;;;;;;5055031;28;20002;-71
2023/03/26 01:35:23;;;;;;;;;;;12.50;99.90;;;;;;5055342;28;19924;-71
2023/03/26 01:37:51;;;;;;;;;;;12.40;99.90;;;;;;5054970;28;19909;-73
2023/03/26 01:40:30;;;;;;;;;;;12.50;99.90;;;;;;5055274;28;19958;-71
2023/03/26 01:43:14;;;;;;;;;;;12.50;99.90;;;;;;5054461;28;19912;-71
2023/03/26 01:45:41;;;;;;;;;;;12.40;99.90;;;;;;5054779;28;20001;-71
2023/03/26 01:48:07;;;;;;;;;;;12.40;99.90;;;;;;5055298;28;19915;-71
2023/03/26 01:50:33;;;;;;;;;;;12.40;99.90;;;;;;5055576;28;19913;-70
2023/03/26 01:52:59;;;;;;;;;;;12.40;99.90;;;;;;5054245;28;20027;-70
2023/03/26 01:55:30;;;;;;;;;;;12.40;99.90;;;;;;5055026;28;19935;-70
2023/03/26 01:58:19;;;;;;;;;;;12.40;99.90;;;;;;5055092;28;19913;-71
2023/03/26 02:00:52;;;;;;;;;;;12.40;99.90;;;;;;5044321;28;19913;-72
2023/03/26 02:03:26;;;;;;;;;;;12.40;99.90;;;;;;5054548;28;19909;-71
2023/03/26 02:05:56;;;;;;;;;;;12.40;99.90;;;;;;5052829;28;19912;-71
2023/03/26 02:08:30;;;;;;;;;;;12.40;99.90;;;;;;5053844;28;19909;-71
2023/03/26 02:10:57;;;;;;;;;;;12.50;99.90;;;;;;5054489;28;19913;-71
2023/03/26 02:13:23;;;;;;;;;;;12.50;99.90;;;;;;5054356;28;20268;-71
2023/03/26 02:16:03;;;;;;;;;;;12.40;99.90;;;;;;5054708;28;19909;-71
2023/03/26 02:18:35;;;;;;;;;;;12.40;99.90;;;;;;5054642;28;19916;-71
2023/03/26 02:21:02;;;;;;;;;;;12.50;99.90;;;;;;5054790;28;20300;-71
2023/03/26 02:23:28;;;;;;;;;;;12.40;99.90;;;;;;5054215;28;19924;-71
2023/03/26 02:25:54;;;;;;;;;;;12.40;99.90;;;;;;5054643;28;20001;-71
2023/03/26 02:28:20;;;;;;;;;;;12.40;99.90;;;;;;5054527;28;20006;-70
2023/03/26 02:30:46;;;;;;;;;;;12.30;99.90;;;;;;5054036;28;20004;-71
2023/03/26 02:33:14;;;;;;;;;;;12.30;99.90;;;;;;5054415;28;19995;-70
2023/03/26 02:35:43;;;;;;;;;;;12.30;99.90;;;;;;5054397;28;19916;-71
2023/03/26 02:38:13;;;;;;;;;;;12.30;99.90;;;;;;5054077;28;19908;-71
2023/03/26 02:40:39;;;;;;;;;;;12.40;99.90;;;;;;5054025;28;19920;-70
2023/03/26 02:43:05;;;;;;;;;;;12.20;99.90;;;;;;5054149;28;19909;-70
2023/03/26 02:45:30;;;;;;;;;;;12.20;99.90;;;;;;5053072;28;19935;-70
2023/03/26 02:47:56;;;;;;;;;;;12.20;99.90;;;;;;5054542;28;19931;-73
2023/03/26 02:50:22;;;;;;;;;;;12.20;99.90;;;;;;5054905;28;19913;-71
2023/03/26 02:52:48;;;;;;;;;;;12.30;99.90;;;;;;5054116;28;20462;-71
2023/03/26 02:55:14;;;;;;;;;;;12.40;99.90;;;;;;5054411;28;20227;-71
2023/03/26 02:57:40;;;;;;;;;;;12.40;99.90;;;;;;5054284;28;19954;-71
2023/03/26 03:00:07;;;;;;;;;;;12.40;99.90;;;;;;5054226;28;19964;-71
2023/03/26 03:02:33;;;;;;;;;;;12.40;99.90;;;;;;5053816;28;19908;-71
2023/03/26 03:05:00;;;;;;;;;;;12.40;99.90;;;;;;5053386;28;19909;-72
2023/03/26 03:07:26;;;;;;;;;;;12.40;99.90;;;;;;5054077;28;20335;-71
2023/03/26 03:09:52;;;;;;;;;;;12.40;99.90;;;;;;5053824;28;19908;-71
2023/03/26 03:12:17;;;;;;;;;;;12.40;99.90;;;;;;5053639;28;19931;-71
2023/03/26 03:14:43;;;;;;;;;;;12.30;99.90;;;;;;5053589;28;19909;-72
2023/03/26 03:17:09;;;;;;;;;;;12.30;99.90;;;;;;5053644;28;20059;-70
2023/03/26 03:19:34;;;;;;;;;;;12.30;99.90;;;;;;5053391;28;19913;-73
2023/03/26 03:22:00;;;;;;;;;;;12.30;99.90;;;;;;5052998;28;19970;-70
2023/03/26 03:24:26;;;;;;;;;;;12.30;99.90;;;;;;5051898;28;19928;-70
2023/03/26 03:26:55;;;;;;;;;;;12.20;99.90;;;;;;5052136;28;19944;-71
2023/03/26 03:29:21;;;;;;;;;;;12.30;99.90;;;;;;5053497;28;19909;-70
2023/03/26 03:31:46;;;;;;;;;;;12.20;99.90;;;;;;5053127;28;19913;-71
2023/03/26 03:34:12;;;;;;;;;;;12.10;99.90;;;;;;5053389;28;19995;-70
2023/03/26 03:36:37;;;;;;;;;;;12.20;99.90;;;;;;5053314;28;19909;-71
2023/03/26 03:39:04;;;;;;;;;;;12.20;99.90;;;;;;5053206;28;20054;-71
2023/03/26 03:41:29;;;;;;;;;;;12.10;99.90;;;;;;5052855;28;19916;-71
2023/03/26 03:43:55;;;;;;;;;;;12.10;99.90;;;;;;5053184;28;19909;-71
2023/03/26 03:46:21;;;;;;;;;;;12.10;99.90;;;;;;5056470;28;20020;-70
2023/03/26 03:48:48;;;;;;;;;;;12.10;99.90;;;;;;5060269;28;19962;-70
2023/03/26 03:51:15;;;;;;;;;;;12.00;99.90;;;;;;5059966;28;19909;-70
2023/03/26 03:53:40;;;;;;;;;;;12.00;99.90;;;;;;5059806;28;19916;-74
2023/03/26 03:56:08;;;;;;;;;;;12.10;99.90;;;;;;5059680;28;20263;-71
2023/03/26 03:58:34;;;;;;;;;;;12.10;99.90;;;;;;5059769;28;19909;-71
2023/03/26 04:01:01;;;;;;;;;;;12.20;99.90;;;;;;5060094;28;19909;-71
2023/03/26 04:03:27;;;;;;;;;;;12.20;99.90;;;;;;5059694;28;20327;-70
2023/03/26 04:05:53;;;;;;;;;;;12.20;99.90;;;;;;5060070;28;19912;-71
2023/03/26 04:08:19;;;;;;;;;;;12.20;99.90;;;;;;5059713;28;20342;-71
2023/03/26 04:10:45;;;;;;;;;;;12.40;99.90;;;;;;5059140;28;19959;-71
2023/03/26 04:13:12;;;;;;;;;;;12.30;99.90;;;;;;5058950;28;19909;-71
2023/03/26 04:15:37;;;;;;;;;;;12.20;99.90;;;;;;5059745;28;19944;-77
2023/03/26 04:18:03;;;;;;;;;;;12.10;99.90;;;;;;5060148;28;20471;-70
2023/03/26 04:20:29;;;;;;;;;;;12.10;99.90;;;;;;5059542;28;20003;-71
2023/03/26 04:22:55;;;;;;;;;;;12.10;99.90;;;;;;5058875;28;19960;-71
2023/03/26 04:25:20;;;;;;;;;;;12.10;99.90;;;;;;5057995;28;19909;-70
2023/03/26 04:27:46;;;;;;;;;;;12.10;99.90;;;;;;5057721;28;20376;-71
2023/03/26 04:30:14;;;;;;;;;;;12.10;99.90;;;;;;5059144;28;19952;-70
2023/03/26 04:32:41;;;;;;;;;;;12.10;99.90;;;;;;5058703;28;20407;-71
2023/03/26 04:35:13;;;;;;;;;;;12.20;99.90;;;;;;5058675;28;20121;-71
2023/03/26 04:37:39;;;;;;;;;;;12.20;99.90;;;;;;5059546;28;19909;-71
2023/03/26 04:40:08;;;;;;;;;;;12.40;99.90;;;;;;5059090;28;20329;-71
2023/03/26 04:42:34;;;;;;;;;;;12.50;99.90;;;;;;5058973;28;20286;-71
2023/03/26 04:45:01;;;;;;;;;;;12.50;99.90;;;;;;5057763;28;19949;-71
2023/03/26 04:47:27;;;;;;;;;;;12.50;99.90;;;;;;5059648;28;20290;-70
2023/03/26 04:49:53;;;;;;;;;;;12.60;99.90;;;;;;5059440;28;20433;-70
2023/03/26 04:52:19;;;;;;;;;;;12.50;99.90;;;;;;5059042;28;19909;-71
2023/03/26 04:54:45;;;;;;;;;;;12.60;99.90;;;;;;5059342;28;19909;-71
2023/03/26 04:57:20;;;;;;;;;;;12.50;99.90;;;;;;5057289;28;19940;-70
2023/03/26 04:59:46;;;;;;;;;;;12.50;99.90;;;;;;5056279;28;19919;-71
2023/03/26 05:02:13;;;;;;;;;;;12.50;99.90;;;;;;5055652;28;19908;-69
2023/03/26 05:04:38;;;;;;;;;;;12.50;99.90;;;;;;5055472;28;19917;-70
2023/03/26 05:07:04;;;;;;;;;;;12.50;99.90;;;;;;5056039;28;20371;-70
2023/03/26 05:09:30;;;;;;;;;;;12.60;99.90;;;;;;5056095;28;19920;-70
2023/03/26 05:11:57;;;;;;;;;;;12.60;99.90;;;;;;5055572;28;19913;-70
2023/03/26 05:14:22;;;;;;;;;;;12.70;99.90;;;;;;5055839;28;19936;-70
2023/03/26 05:16:49;;;;;;;;;;;12.70;99.90;;;;;;5054352;28;20268;-71
2023/03/26 05:19:15;;;;;;;;;;;12.60;99.90;;;;;;5056174;28;20201;-72
2023/03/26 05:21:40;;;;;;;;;;;12.80;99.90;;;;;;5055424;28;19909;-71
2023/03/26 05:24:06;;;;;;;;;;;12.80;99.90;;;;;;5055483;28;19920;-70
2023/03/26 05:26:32;;;;;;;;;;;12.80;99.90;;;;;;5055846;28;19944;-71
2023/03/26 05:28:58;;;;;;;;;;;12.80;99.90;;;;;;5055387;28;19909;-70
2023/03/26 05:31:25;;;;;;;;;;;12.80;99.90;;;;;;5055334;28;20423;-71
2023/03/26 05:33:51;;;;;;;;;;;12.80;99.90;;;;;;5054967;28;19940;-71
2023/03/26 05:36:17;;;;;;;;;;;12.80;99.90;;;;;;5055231;28;20382;-71
2023/03/26 05:38:48;;;;;;;;;;;12.90;99.90;;;;;;5055531;28;19976;-71
2023/03/26 05:41:15;;;;;;;;;;;13.00;99.90;;;;;;5055145;28;19936;-71
2023/03/26 05:43:40;;;;;;;;;;;13.00;99.90;;;;;;5055122;28;19908;-71
2023/03/26 05:46:07;;;;;;;;;;;13.10;99.90;;;;;;5053690;28;19920;-71
2023/03/26 05:48:32;;;;;;;;;;;13.10;99.90;;;;;;5055510;28;20354;-73
2023/03/26 05:50:58;;;;;;;;;;;13.10;99.90;;;;;;5055333;28;19909;-71
2023/03/26 05:53:25;;;;;;;;;;;13.10;99.90;;;;;;5054863;28;19909;-71
2023/03/26 05:55:56;;;;;;;;;;;13.20;99.90;;;;;;5054942;28;20288;-71
2023/03/26 05:58:26;;;;;;;;;;;13.20;99.90;;;;;;5055240;28;19909;-70
2023/03/26 06:00:57;;;;;;;;;;;13.10;99.90;;;;;;5054895;28;19917;-70
2023/03/26 06:03:23;;;;;;;;;;;13.10;99.90;;;;;;5054359;28;20371;-72
2023/03/26 06:05:48;;;;;;;;;;;13.20;99.90;;;;;;5054021;28;19909;-70
2023/03/26 06:08:14;;;;;;;;;;;13.20;99.90;;;;;;5054518;28;19934;-72
2023/03/26 06:10:40;;;;;;;;;;;13.10;99.90;;;;;;5054155;28;20007;-76
2023/03/26 06:13:06;;;;;;;;;;;13.10;99.90;;;;;;5054166;28;19920;-70
2023/03/26 06:15:31;;;;;;;;;;;13.20;99.90;;;;;;5054327;28;19908;-71
2023/03/26 06:17:57;;;;;;;;;;;13.30;99.90;;;;;;5054740;28;19916;-70
2023/03/26 06:20:23;;;;;;;;;;;13.30;99.90;;;;;;5052731;28;19952;-71
2023/03/26 06:22:48;;;;;;;;;;;13.40;99.90;;;;;;5053985;28;19916;-73
2023/03/26 06:25:14;;;;;;;;;;;13.50;99.90;;;;;;5054084;28;20008;-71
2023/03/26 06:27:40;;;;;;;;;;;13.50;99.90;;;;;;5054597;28;19909;-71
2023/03/26 06:30:06;;;;;;;;;;;13.50;99.90;;;;;;5054335;28;19912;-71
2023/03/26 06:32:31;;;;;;;;;;;13.60;99.90;;;;;;5053886;28;19955;-71
2023/03/26 06:34:57;;;;;;;;;;;13.60;99.90;;;;;;5054342;28;19944;-71
2023/03/26 06:37:23;;;;;;;;;;;13.60;99.90;;;;;;5054049;28;19927;-71
2023/03/26 06:39:48;;;;;;;;;;;13.70;99.90;;;;;;5054285;28;20377;-70
2023/03/26 06:42:14;;;;;;;;;;;13.80;99.90;;;;;;5053672;28;19916;-71
2023/03/26 06:44:39;;;;;;;;;;;13.80;99.90;;;;;;5053869;28;19999;-73
2023/03/26 06:47:05;;;;;;;;;;;13.80;99.90;;;;;;5052649;28;19976;-70
2023/03/26 06:49:31;;;;;;;;;;;13.80;99.90;;;;;;5052944;28;19909;-71
2023/03/26 06:51:56;;;;;;;;;;;13.90;99.90;;;;;;5053120;28;19988;-71
2023/03/26 06:54:22;;;;;;;;;;;13.90;99.90;;;;;;5054051;28;20004;-71
2023/03/26 06:56:48;;;;;;;;;;;13.90;99.90;;;;;;5054143;28;19959;-70
2023/03/26 06:59:13;;;;;;;;;;;14.00;99.90;;;;;;5052552;28;19912;-71
2023/03/26 07:01:39;;;;;;;;;;;14.00;99.90;;;;;;5053748;28;19963;-74
2023/03/26 07:04:05;;;;;;;;;;;14.00;99.90;;;;;;5053426;28;19920;-71
2023/03/26 07:06:31;;;;;;;;;;;14.00;99.90;;;;;;5053672;28;20455;-71
2023/03/26 07:08:56;;;;;;;;;;;14.10;99.90;;;;;;5053527;28;19921;-70
2023/03/26 07:11:24;;;;;;;;;;;14.10;99.90;;;;;;5053336;28;19909;-71
2023/03/26 07:13:50;;;;;;;;;;;14.30;99.90;;;;;;5053358;28;19920;-72
2023/03/26 07:16:16;;;;;;;;;;;14.30;99.90;;;;;;5052922;28;19917;-71
2023/03/26 07:18:41;;;;;;;;;;;14.40;99.90;;;;;;5052342;28;20231;-76
2023/03/26 07:21:07;;;;;;;;;;;14.30;99.90;;;;;;5051341;28;19913;-71
2023/03/26 07:23:33;;;;;;;;;;;14.40;99.90;;;;;;5051460;28;19917;-71
2023/03/26 07:26:00;;;;;;;;;;;14.40;99.90;;;;;;5051778;28;19909;-71
2023/03/26 07:28:26;;;;;;;;;;;14.40;99.90;;;;;;5051528;28;20296;-71
2023/03/26 07:30:51;;;;;;;;;;;14.50;99.90;;;;;;5051854;28;19995;-75
2023/03/26 07:33:28;;;;;;;;;;;14.50;99.90;;;;;;5051514;28;20405;-71
2023/03/26 07:36:06;;;;;;;;;;;14.50;99.90;;;;;;5052315;28;19909;-71
2023/03/26 07:38:45;;;;;;;;;;;14.50;99.90;;;;;;5051598;28;19913;-71
2023/03/26 07:41:33;;;;;;;;;;;14.60;99.90;;;;;;5051439;28;19913;-71
2023/03/26 07:44:11;;;;;;;;;;;14.70;99.90;;;;;;5051880;28;19931;-71
2023/03/26 07:46:38;;;;;;;;;;;14.70;99.90;;;;;;5050103;28;19909;-71
2023/03/26 07:49:04;;;;;;;;;;;14.60;99.90;;;;;;5051428;28;19915;-71
2023/03/26 07:51:31;;;;;;;;;;;14.70;99.90;;;;;;5049584;28;19909;-71
2023/03/26 07:53:59;;;;;;;;;;;14.70;99.90;;;;;;5051179;28;19913;-70
2023/03/26 07:56:24;;;;;;;;;;;14.80;99.90;;;;;;5049957;28;20379;-70
2023/03/26 07:58:58;;;;;;;;;;;15.00;99.90;;;;;;5051105;28;19935;-71
2023/03/26 08:01:24;;;;;;;;;;;15.00;99.90;;;;;;5050885;28;19908;-71
2023/03/26 08:03:56;;;;;;;;;;;14.90;99.90;;;;;;5051249;28;19916;-71
2023/03/26 08:06:27;;;;;;;;;;;14.90;99.90;;;;;;5051232;28;20012;-71
2023/03/26 08:08:57;;;;;;;;;;;15.00;99.90;;;;;;5051504;28;19917;-71
2023/03/26 08:11:28;;;;;;;;;;;15.20;99.90;;;;;;5051275;28;19978;-71
2023/03/26 08:13:57;;;;;;;;;;;15.10;99.90;;;;;;5051387;28;20366;-71
2023/03/26 08:16:32;;;;;;;;;;;15.20;99.90;;;;;;5051386;28;20404;-71
2023/03/26 08:19:06;;;;;;;;;;;15.20;99.90;;;;;;5051332;28;20363;-71
2023/03/26 08:21:41;;;;;;;;;;;15.30;99.90;;;;;;5050917;28;19962;-72
2023/03/26 08:24:25;;;;;;;;;;;15.40;99.90;;;;;;5051336;28;20007;-71
2023/03/26 08:26:51;;;;;;;;;;;15.50;99.90;;;;;;5051165;28;19909;-71
2023/03/26 08:29:23;;;;;;;;;;;15.50;99.90;;;;;;5050757;28;19909;-71
2023/03/26 08:31:49;;;;;;;;;;;15.50;99.90;;;;;;5051430;28;19909;-71
2023/03/26 08:34:15;;;;;;;;;;;15.60;99.90;;;;;;5054750;28;20260;-71
2023/03/26 08:36:41;;;;;;;;;;;15.70;99.90;;;;;;5053594;28;19908;-71
2023/03/26 08:39:07;;;;;;;;;;;15.80;99.90;;;;;;5054805;28;19986;-71
2023/03/26 08:41:39;;;;;;;;;;;15.80;99.90;;;;;;5054610;28;19909;-71
2023/03/26 08:44:17;;;;;;;;;;;15.80;99.90;;;;;;5053403;28;19909;-71
2023/03/26 08:46:44;;;;;;;;;;;15.80;99.90;;;;;;5055020;28;19909;-71
2023/03/26 08:49:14;;;;;;;;;;;15.90;99.90;;;;;;5055163;28;20390;-72
2023/03/26 08:51:40;;;;;;;;;;;15.90;99.90;;;;;;5054286;28;19913;-72
2023/03/26 08:54:24;;;;;;;;;;;16.10;99.90;;;;;;5054103;28;19966;-72
2023/03/26 08:56:55;;;;;;;;;;;16.10;99.90;;;;;;5054329;28;19909;-72
2023/03/26 08:59:27;;;;;;;;;;;16.20;99.90;;;;;;5054136;28;20000;-71
2023/03/26 09:01:59;;;;;;;;;;;16.20;99.90;;;;;;5052338;28;20023;-71
2023/03/26 09:04:40;;;;;;;;;;;16.20;99.90;;;;;;5053886;28;20407;-71
2023/03/26 09:07:09;;;;;;;;;;;16.20;99.90;;;;;;5054128;28;19916;-71
2023/03/26 09:09:41;;;;;;;;;;;16.30;99.90;;;;;;5053991;28;19913;-72
2023/03/26 09:12:06;;;;;;;;;;;16.50;99.90;;;;;;5053007;28;20271;-71
2023/03/26 09:14:50;;;;;;;;;;;16.70;99.90;;;;;;5054495;28;19916;-71
2023/03/26 09:17:46;;;;;;;;;;;16.70;99.90;;;;;;5054395;28;19916;-72
2023/03/26 09:20:30;;;;;;;;;;;16.60;99.90;;;;;;5051837;28;19936;-71
2023/03/26 09:23:18;;;;;;;;;;;16.60;99.90;;;;;;5061994;28;19917;-71
2023/03/26 09:25:50;;;;;;;;;;;16.60;99.90;;;;;;5055159;28;20003;-72
2023/03/26 09:28:35;;;;;;;;;;;16.60;99.90;;;;;;5055391;28;19909;-73
2023/03/26 09:31:17;;;;;;;;;;;16.60;99.90;;;;;;5049983;28;19934;-72
2023/03/26 09:33:51;;;;;;;;;;;16.60;99.90;;;;;;5054938;28;19909;-72
2023/03/26 09:36:16;;;;;;;;;;;16.60;99.90;;;;;;5055305;28;19995;-72
2023/03/26 09:38:50;;;;;;;;;;;16.60;99.90;;;;;;5055066;28;20000;-74
2023/03/26 09:41:19;;;;;;;;;;;16.60;99.90;;;;;;5054926;28;19917;-71
2023/03/26 09:43:51;;;;;;;;;;;16.60;99.90;;;;;;5054194;28;20004;-72
2023/03/26 09:46:19;;;;;;;;;;;16.70;99.90;;;;;;5053446;28;20025;-71
2023/03/26 09:49:04;;;;;;;;;;;16.70;99.90;;;;;;5054828;28;19961;-71
2023/03/26 09:51:39;;;;;;;;;;;16.70;99.90;;;;;;5054734;28;19909;-73
2023/03/26 09:54:05;;;;;;;;;;;16.80;99.90;;;;;;5054860;28;19995;-73
2023/03/26 09:56:37;;;;;;;;;;;17.00;99.90;;;;;;5055257;28;19915;-71
2023/03/26 09:59:22;;;;;;;;;;;17.00;99.90;;;;;;5054576;28;19909;-71
2023/03/26 10:01:47;;;;;;;;;;;17.00;99.90;;;;;;5054819;28;19908;-71
2023/03/26 10:04:32;;;;;;;;;;;17.10;99.90;;;;;;5054839;28;20405;-71
2023/03/26 10:07:16;;;;;;;;;;;17.20;99.90;;;;;;5054674;28;19916;-71
2023/03/26 10:09:51;;;;;;;;;;;17.20;99.90;;;;;;5054639;28;19909;-71
2023/03/26 10:12:26;;;;;;;;;;;17.30;99.90;;;;;;5055132;28;20020;-72
2023/03/26 10:15:05;;;;;;;;;;;17.30;99.90;;;;;;5055140;28;19909;-71
2023/03/26 10:17:49;;;;;;;;;;;17.20;99.90;;;;;;5053541;28;19913;-74
2023/03/26 10:20:16;;;;;;;;;;;17.20;99.90;;;;;;5055185;28;20374;-73
2023/03/26 10:22:42;;;;;;;;;;;17.30;99.90;;;;;;5053135;28;20285;-72
2023/03/26 10:25:19;;;;;;;;;;;17.40;99.90;;;;;;5054285;28;19991;-72
2023/03/26 10:27:45;;;;;;;;;;;17.40;99.90;;;;;;5054870;28;19909;-71
2023/03/26 10:30:30;;;;;;;;;;;17.50;99.90;;;;;;5054982;28;20306;-71
2023/03/26 10:33:07;;;;;;;;;;;17.40;99.90;;;;;;5054995;28;19909;-71
2023/03/26 10:35:51;;;;;;;;;;;17.40;99.90;;;;;;5054336;28;19909;-72
2023/03/26 10:38:30;;;;;;;;;;;17.40;99.90;;;;;;5054480;28;19909;-71
2023/03/26 10:41:11;;;;;;;;;;;17.30;99.90;;;;;;5054075;28;19956;-71
2023/03/26 10:43:47;;;;;;;;;;;17.30;99.90;;;;;;5053944;28;19913;-71
2023/03/26 10:46:36;;;;;;;;;;;17.20;99.90;;;;;;5053622;28;20351;-71
2023/03/26 10:49:20;;;;;;;;;;;17.00;99.90;;;;;;5043505;28;19909;-71
2023/03/26 10:51:54;;;;;;;;;;;16.90;99.90;;;;;;5053348;28;20034;-71
2023/03/26 10:54:23;;;;;;;;;;;16.60;99.90;;;;;;5053375;28;19909;-71
2023/03/26 10:56:49;;;;;;;;;;;16.40;99.90;;;;;;5052631;28;19944;-72
2023/03/26 10:59:16;;;;;;;;;;;16.10;99.90;;;;;;5051841;28;19967;-71
2023/03/26 11:01:54;;;;;;;;;;;16.10;99.90;;;;;;5052991;28;19912;-71
2023/03/26 11:04:23;;;;;;;;;;;16.00;99.90;;;;;;5053699;28;20355;-71
2023/03/26 11:07:04;;;;;;;;;;;15.90;99.90;;;;;;5053394;28;19913;-72
2023/03/26 11:09:38;;;;;;;;;;;15.80;99.90;;;;;;5052278;28;20007;-71
2023/03/26 11:12:06;;;;;;;;;;;15.70;99.90;;;;;;5053245;28;20004;-71
2023/03/26 11:14:40;;;;;;;;;;;15.60;99.90;;;;;;5052898;28;19909;-71
2023/03/26 11:17:15;;;;;;;;;;;15.50;99.90;;;;;;5053414;28;19920;-71
2023/03/26 11:19:53;;;;;;;;;;;15.50;99.90;;;;;;5051694;28;20374;-72
2023/03/26 11:22:22;;;;;;;;;;;15.50;99.90;;;;;;5051427;28;19919;-71
2023/03/26 11:24:47;;;;;;;;;;;15.60;99.90;;;;;;5052884;28;19982;-71
2023/03/26 11:27:39;;;;;;;;;;;15.60;99.90;;;;;;5052855;28;20399;-71
2023/03/26 11:30:05;;;;;;;;;;;15.70;99.90;;;;;;5042870;28;19988;-71
2023/03/26 11:32:38;;;;;;;;;;;15.70;99.90;;;;;;5051305;28;20374;-71
2023/03/26 11:35:16;;;;;;;;;;;15.70;99.90;;;;;;5052664;28;19937;-72
2023/03/26 11:37:43;;;;;;;;;;;15.70;99.90;;;;;;5052458;28;19912;-71
2023/03/26 11:40:13;;;;;;;;;;;15.70;99.90;;;;;;5052164;28;19921;-73
2023/03/26 11:42:39;;;;;;;;;;;15.70;99.90;;;;;;5052266;28;19916;-71
2023/03/26 11:45:11;;;;;;;;;;;15.50;99.90;;;;;;5052133;28;19979;-71
2023/03/26 11:47:40;;;;;;;;;;;15.50;99.90;;;;;;5052572;28;19920;-71
2023/03/26 11:50:09;;;;;;;;;;;15.50;99.90;;;;;;5053746;28;19917;-71
2023/03/26 11:52:35;;;;;;;;;;;15.50;99.90;;;;;;5050996;28;19917;-71
2023/03/26 11:55:02;;;;;;;;;;;15.50;99.90;;;;;;5051540;28;20325;-71
2023/03/26 11:57:32;;;;;;;;;;;15.60;99.90;;;;;;5051607;28;19909;-71
2023/03/26 12:00:19;;;;;;;;;;;15.60;99.90;;;;;;5052972;28;20446;-71
2023/03/26 12:02:46;;;;;;;;;;;15.60;99.90;;;;;;5052592;28;20003;-71
2023/03/26 12:05:25;;;;;;;;;;;15.60;99.90;;;;;;5052202;28;19913;-71
2023/03/26 12:07:52;;;;;;;;;;;15.60;99.90;;;;;;5055697;28;19995;-71
2023/03/26 12:10:37;;;;;;;;;;;15.70;99.90;;;;;;5055013;28;19959;-72
2023/03/26 12:13:23;;;;;;;;;;;15.60;99.90;;;;;;5056221;28;19908;-71
2023/03/26 12:15:49;;;;;;;;;;;15.80;99.90;;;;;;5052400;28;20326;-71
2023/03/26 12:18:25;;;;;;;;;;;15.90;99.90;;;;;;5056468;28;20071;-71
2023/03/26 12:21:05;;;;;;;;;;;16.00;99.90;;;;;;5056870;28;19920;-71
2023/03/26 12:23:57;;;;;;;;;;;16.00;99.90;;;;;;5056178;28;19980;-72
2023/03/26 12:26:32;;;;;;;;;;;15.90;99.90;;;;;;5055801;28;19909;-71
2023/03/26 12:29:04;;;;;;;;;;;16.10;99.90;;;;;;5056286;28;19909;-72
2023/03/26 12:31:40;;;;;;;;;;;16.10;99.90;;;;;;5056096;28;20016;-72
2023/03/26 12:34:12;;;;;;;;;;;16.00;99.90;;;;;;5056522;28;20370;-72
2023/03/26 12:36:38;;;;;;;;;;;16.10;99.90;;;;;;5055910;28;20415;-71
2023/03/26 12:39:24;;;;;;;;;;;16.20;99.90;;;;;;5056131;28;19959;-71
2023/03/26 12:41:54;;;;;;;;;;;16.20;99.90;;;;;;5054061;28;19915;-71
2023/03/26 12:44:30;;;;;;;;;;;16.30;99.90;;;;;;5055460;28;20079;-71
2023/03/26 12:47:08;;;;;;;;;;;16.40;99.90;;;;;;5055581;28;19919;-71
2023/03/26 12:49:34;;;;;;;;;;;16.50;99.90;;;;;;5055851;28;19913;-71
2023/03/26 12:52:03;;;;;;;;;;;16.60;99.90;;;;;;5055412;28;20401;-71
2023/03/26 12:54:38;;;;;;;;;;;16.70;99.90;;;;;;5055235;28;19909;-71
2023/03/26 12:57:21;;;;;;;;;;;16.70;99.90;;;;;;5055680;28;20110;-73
2023/03/26 12:59:47;;;;;;;;;;;16.80;99.90;;;;;;5055745;28;19958;-73
2023/03/26 13:02:20;;;;;;;;;;;16.80;99.90;;;;;;5055619;28;20436;-71
2023/03/26 13:05:03;;;;;;;;;;;17.00;99.90;;;;;;5053500;28;20362;-74
2023/03/26 13:07:29;;;;;;;;;;;16.90;99.90;;;;;;5054806;28;20286;-71
2023/03/26 13:10:30;;;;;;;;;;;16.90;99.90;;;;;;5054679;28;19915;-72
2023/03/26 13:13:00;;;;;;;;;;;17.00;99.90;;;;;;5032073;28;19995;-72
2023/03/26 13:15:37;;;;;;;;;;;17.00;99.90;;;;;;5049909;28;19909;-72
2023/03/26 13:18:22;;;;;;;;;;;17.10;99.90;;;;;;5054412;28;19913;-71
2023/03/26 13:20:49;;;;;;;;;;;17.10;99.90;;;;;;5053507;28;19912;-71
2023/03/26 13:23:33;;;;;;;;;;;17.00;99.90;;;;;;5054854;28;19932;-72
2023/03/26 13:26:01;;;;;;;;;;;17.00;99.90;;;;;;5054705;28;19991;-71
2023/03/26 13:28:30;;;;;;;;;;;17.00;99.90;;;;;;5054751;28;19909;-72
2023/03/26 13:31:00;;;;;;;;;;;16.90;99.90;;;;;;5054536;28;19913;-71
2023/03/26 13:33:29;;;;;;;;;;;16.90;99.90;;;;;;5054065;28;19920;-71
2023/03/26 13:35:55;;;;;;;;;;;16.80;99.90;;;;;;5053400;28;20252;-73
2023/03/26 13:38:26;;;;;;;;;;;16.90;99.90;;;;;;5054134;28;19915;-75
2023/03/26 13:40:55;;;;;;;;;;;16.90;99.90;;;;;;5054663;28;20330;-72
2023/03/26 13:43:26;;;;;;;;;;;17.00;99.90;;;;;;5052921;28;20059;-72
2023/03/26 13:46:18;;;;;;;;;;;17.00;99.90;;;;;;5054564;28;19916;-71
2023/03/26 13:48:45;;;;;;;;;;;17.00;99.90;;;;;;5053031;28;19937;-72
2023/03/26 13:51:30;;;;;;;;;;;17.10;99.90;;;;;;5054486;28;19909;-71
2023/03/26 13:54:00;;;;;;;;;;;17.30;99.90;;;;;;5054082;28;20273;-71
2023/03/26 13:56:31;;;;;;;;;;;17.40;99.90;;;;;;5054183;28;19909;-71
2023/03/26 13:59:00;;;;;;;;;;;17.40;99.90;;;;;;5053585;28;19912;-71
2023/03/26 14:01:33;;;;;;;;;;;17.40;99.90;;;;;;5052627;28;19909;-72
2023/03/26 14:04:16;;;;;;;;;;;17.50;99.90;;;;;;5052679;28;19963;-72
2023/03/26 14:06:56;;;;;;;;;;;17.50;99.90;;;;;;5053232;28;19916;-72
2023/03/26 14:09:29;;;;;;;;;;;17.60;99.90;;;;;;5053109;28;19909;-72
2023/03/26 14:11:55;;;;;;;;;;;17.70;99.90;;;;;;5053672;28;19915;-72
2023/03/26 14:14:36;;;;;;;;;;;17.90;99.90;;;;;;5054059;28;19909;-71
2023/03/26 14:17:24;;;;;;;;;;;17.90;99.90;;;;;;5054192;28;20393;-72
2023/03/26 14:20:08;;;;;;;;;;;17.80;99.90;;;;;;5053904;28;19913;-71
2023/03/26 14:22:35;;;;;;;;;;;17.90;99.90;;;;;;5053820;28;20348;-72
2023/03/26 14:25:19;;;;;;;;;;;17.90;99.90;;;;;;5052767;28;19909;-72
2023/03/26 14:27:51;;;;;;;;;;;18.00;99.90;;;;;;5054325;28;19920;-71
2023/03/26 14:30:29;;;;;;;;;;;17.90;99.90;;;;;;5054073;28;20278;-71
2023/03/26 14:33:04;;;;;;;;;;;17.90;99.90;;;;;;5053374;28;19916;-73
2023/03/26 14:35:36;;;;;;;;;;;17.90;99.90;;;;;;5052291;28;20366;-71